createdAt,value
2018-07-31T00:01:35.435Z,5.27
2018-07-31T00:04:03.443Z,5.77
2018-07-31T00:06:31.426Z,6.27
2018-07-31T00:08:59.529Z,4.87
2018-07-31T00:11:28.509Z,6.13
2018-07-31T00:13:57.509Z,5.47
2018-07-31T00:16:26.086Z,5.90
2018-07-31T00:18:54.235Z,5.50
2018-07-31T00:21:22.374Z,5.70
2018-07-31T00:23:50.370Z,4.70
2018-07-31T00:26:18.330Z,5.27
2018-07-31T00:28:46.323Z,5.33
2018-07-31T00:31:14.295Z,5.50
2018-07-31T00:33:42.260Z,5.90
2018-07-31T00:36:10.228Z,5.37
2018-07-31T00:38:38.174Z,5.60
2018-07-31T00:41:06.223Z,6.37
2018-07-31T00:43:34.220Z,5.97
2018-07-31T00:46:02.195Z,5.97
2018-07-31T00:48:30.338Z,6.17
2018-07-31T00:50:59.285Z,6.97
2018-07-31T00:53:28.400Z,6.60
2018-07-31T00:55:56.987Z,6.70
2018-07-31T00:58:25.129Z,6.80
2018-07-31T01:00:53.197Z,7.67
2018-07-31T01:03:21.170Z,7.40
2018-07-31T01:05:49.161Z,7.00
2018-07-31T01:08:17.141Z,7.20
2018-07-31T01:10:45.130Z,7.27
2018-07-31T01:13:13.109Z,6.50
2018-07-31T01:15:41.110Z,6.30
2018-07-31T01:18:09.089Z,6.40
2018-07-31T01:20:37.167Z,7.20
2018-07-31T01:23:05.136Z,6.23
2018-07-31T01:25:33.132Z,6.40
2018-07-31T01:28:01.999Z,7.00
2018-07-31T01:30:30.643Z,7.93
2018-07-31T01:32:59.744Z,6.60
2018-07-31T01:35:28.880Z,7.50
2018-07-31T01:37:57.388Z,7.60
2018-07-31T01:40:25.523Z,6.00
2018-07-31T01:42:53.516Z,6.83
2018-07-31T01:45:21.561Z,5.60
2018-07-31T01:47:50.249Z,7.60
2018-07-31T01:50:18.786Z,5.30
2018-07-31T01:52:46.740Z,6.27
2018-07-31T01:55:14.785Z,7.03
2018-07-31T01:57:42.743Z,7.17
2018-07-31T02:00:10.793Z,7.50
2018-07-31T02:02:38.856Z,6.93
2018-07-31T02:05:06.885Z,6.20
2018-07-31T02:07:34.894Z,7.93
2018-07-31T02:10:02.936Z,6.53
2018-07-31T02:12:30.927Z,6.77
2018-07-31T02:14:58.882Z,7.80
2018-07-31T02:17:26.947Z,7.00
2018-07-31T02:19:54.868Z,6.27
2018-07-31T02:22:22.973Z,6.87
2018-07-31T02:24:50.924Z,6.80
2018-07-31T02:27:18.898Z,6.93
2018-07-31T02:29:52.291Z,6.50
2018-07-31T02:32:20.294Z,6.33
2018-07-31T02:34:48.292Z,6.83
2018-07-31T02:37:16.277Z,7.10
2018-07-31T02:39:44.251Z,6.83
2018-07-31T02:42:12.554Z,6.87
2018-07-31T02:44:41.517Z,6.77
2018-07-31T02:47:10.469Z,6.87
2018-07-31T02:49:39.152Z,6.83
2018-07-31T02:52:07.294Z,6.43
2018-07-31T02:54:35.271Z,6.27
2018-07-31T02:57:03.272Z,7.03
2018-07-31T02:59:31.235Z,6.63
2018-07-31T03:01:59.246Z,5.80
2018-07-31T03:04:27.223Z,7.20
2018-07-31T03:06:55.208Z,7.30
2018-07-31T03:09:23.194Z,7.40
2018-07-31T03:11:51.175Z,7.40
2018-07-31T03:14:19.138Z,8.73
2018-07-31T03:16:47.158Z,7.33
2018-07-31T03:19:15.111Z,7.93
2018-07-31T03:21:43.545Z,6.90
2018-07-31T03:24:13.175Z,7.50
2018-07-31T03:26:42.216Z,6.30
2018-07-31T03:29:11.088Z,6.90
2018-07-31T03:31:39.565Z,5.97
2018-07-31T03:34:07.782Z,6.60
2018-07-31T03:36:35.758Z,7.33
2018-07-31T03:39:03.889Z,6.90
2018-07-31T03:41:31.871Z,6.80
2018-07-31T03:43:59.868Z,6.10
2018-07-31T03:46:27.852Z,6.42
2018-07-31T03:48:55.798Z,6.90
2018-07-31T03:51:23.779Z,6.63
2018-07-31T03:53:51.750Z,7.17
2018-07-31T03:56:19.723Z,6.33
2018-07-31T03:58:47.734Z,7.30
2018-07-31T04:01:16.423Z,6.23
2018-07-31T04:03:44.630Z,5.97
2018-07-31T04:06:13.672Z,6.77
2018-07-31T04:08:42.702Z,6.07
2018-07-31T04:11:11.281Z,5.97
2018-07-31T04:13:39.414Z,6.67
2018-07-31T04:16:07.562Z,5.93
2018-07-31T04:18:35.552Z,6.10
2018-07-31T04:21:03.523Z,6.13
2018-07-31T04:23:31.491Z,6.20
2018-07-31T04:25:59.446Z,6.70
2018-07-31T04:28:27.511Z,7.03
2018-07-31T04:30:55.475Z,7.20
2018-07-31T04:33:23.464Z,6.57
2018-07-31T04:35:51.457Z,7.50
2018-07-31T04:38:19.495Z,7.63
2018-07-31T04:40:47.466Z,7.53
2018-07-31T04:43:15.671Z,6.77
2018-07-31T04:45:44.630Z,6.93
2018-07-31T04:48:13.591Z,7.73
2018-07-31T04:50:42.383Z,6.77
2018-07-31T04:53:10.561Z,7.27
2018-07-31T04:55:38.699Z,7.50
2018-07-31T04:58:06.701Z,6.70
2018-07-31T05:00:34.656Z,7.47
2018-07-31T05:03:02.701Z,8.17
2018-07-31T05:05:30.675Z,6.90
2018-07-31T05:07:58.710Z,7.30
2018-07-31T05:10:26.695Z,7.20
2018-07-31T05:12:54.702Z,6.67
2018-07-31T05:15:22.682Z,6.80
2018-07-31T05:17:50.657Z,6.87
2018-07-31T05:20:18.625Z,7.30
2018-07-31T05:22:46.728Z,6.43
2018-07-31T05:25:15.550Z,7.70
2018-07-31T05:27:44.478Z,8.50
2018-07-31T05:30:13.181Z,7.30
2018-07-31T05:32:41.412Z,7.60
2018-07-31T05:35:10.050Z,15.03
2018-07-31T05:37:38.393Z,15.83
2018-07-31T05:40:06.839Z,9.17
2018-07-31T05:42:34.845Z,14.47
2018-07-31T05:45:02.898Z,10.07
2018-07-31T05:47:30.912Z,8.70
2018-07-31T05:49:58.905Z,7.40
2018-07-31T05:52:26.864Z,6.80
2018-07-31T05:54:54.865Z,8.40
2018-07-31T05:57:22.825Z,8.10
2018-07-31T05:59:50.880Z,7.03
2018-07-31T06:02:18.851Z,8.30
2018-07-31T06:04:47.157Z,7.20
2018-07-31T06:07:16.010Z,10.70
2018-07-31T06:09:44.887Z,13.00
2018-07-31T06:12:13.373Z,16.57
2018-07-31T06:14:41.518Z,8.97
2018-07-31T06:17:09.553Z,8.73
2018-07-31T06:19:37.562Z,8.67
2018-07-31T06:22:05.590Z,7.23
2018-07-31T06:24:33.602Z,8.07
2018-07-31T06:27:01.635Z,8.80
2018-07-31T06:29:29.592Z,8.40
2018-07-31T06:31:57.563Z,8.17
2018-07-31T06:34:25.568Z,8.50
2018-07-31T06:36:53.529Z,9.17
2018-07-31T06:39:21.519Z,8.90
2018-07-31T06:41:49.483Z,9.17
2018-07-31T06:44:17.903Z,8.57
2018-07-31T06:46:46.716Z,9.90
2018-07-31T06:49:15.643Z,8.83
2018-07-31T06:51:44.162Z,8.30
2018-07-31T06:54:12.306Z,9.37
2018-07-31T06:56:40.293Z,8.60
2018-07-31T06:59:08.302Z,9.60
2018-07-31T07:01:36.275Z,8.13
2018-07-31T07:04:04.275Z,9.83
2018-07-31T07:06:32.236Z,8.13
2018-07-31T07:09:00.238Z,7.67
2018-07-31T07:11:28.194Z,9.10
2018-07-31T07:13:56.190Z,14.70
2018-07-31T07:16:24.154Z,8.53
2018-07-31T07:18:52.281Z,8.50
2018-07-31T07:21:20.964Z,7.60
2018-07-31T07:23:49.202Z,9.10
2018-07-31T07:26:17.948Z,11.10
2018-07-31T07:28:46.882Z,7.83
2018-07-31T07:31:15.564Z,7.87
2018-07-31T07:33:43.817Z,8.63
2018-07-31T07:36:12.015Z,6.47
2018-07-31T07:38:39.960Z,4.80
2018-07-31T07:41:07.984Z,7.10
2018-07-31T07:43:35.958Z,7.90
2018-07-31T07:46:03.968Z,7.60
2018-07-31T07:48:31.999Z,9.77
2018-07-31T07:50:59.956Z,8.77
2018-07-31T07:53:27.914Z,8.20
2018-07-31T07:55:56.686Z,5.67
2018-07-31T07:58:24.643Z,5.70
2018-07-31T08:00:52.658Z,8.17
2018-07-31T08:03:20.638Z,7.80
2018-07-31T08:05:49.051Z,7.77
2018-07-31T08:08:18.011Z,6.97
2018-07-31T08:10:46.874Z,4.40
2018-07-31T08:13:15.252Z,6.00
2018-07-31T08:15:43.402Z,5.27
2018-07-31T08:18:11.358Z,7.57
2018-07-31T08:20:39.376Z,6.30
2018-07-31T08:23:07.377Z,6.93
2018-07-31T08:25:35.378Z,6.77
2018-07-31T08:28:03.378Z,8.50
2018-07-31T08:30:31.450Z,6.07
2018-07-31T08:32:59.447Z,7.67
2018-07-31T08:35:27.945Z,7.97
2018-07-31T08:37:56.074Z,6.93
2018-07-31T08:40:24.078Z,8.00
2018-07-31T08:42:52.067Z,10.70
2018-07-31T08:45:20.258Z,7.37
2018-07-31T08:47:49.172Z,7.87
2018-07-31T08:50:18.258Z,7.70
2018-07-31T08:52:46.963Z,4.47
2018-07-31T08:55:15.071Z,7.80
2018-07-31T08:57:43.244Z,8.90
2018-07-31T09:00:11.289Z,7.70
2018-07-31T09:02:39.365Z,6.90
2018-07-31T09:05:07.670Z,5.23
2018-07-31T09:07:35.755Z,7.07
2018-07-31T09:10:04.535Z,7.63
2018-07-31T09:12:32.506Z,6.47
2018-07-31T09:15:00.437Z,6.70
2018-07-31T09:17:28.446Z,7.53
2018-07-31T09:19:56.406Z,8.47
2018-07-31T09:22:24.487Z,8.10
2018-07-31T09:24:52.489Z,7.80
2018-07-31T09:27:20.438Z,7.57
2018-07-31T09:29:48.417Z,5.30
2018-07-31T09:32:20.017Z,5.37
2018-07-31T09:34:47.975Z,5.40
2018-07-31T09:37:16.635Z,8.20
2018-07-31T09:39:44.597Z,5.70
2018-07-31T09:42:13.226Z,8.43
2018-07-31T09:44:43.572Z,6.83
2018-07-31T09:47:12.983Z,8.30
2018-07-31T09:49:42.188Z,6.63
2018-07-31T09:52:11.856Z,8.30
2018-07-31T09:54:41.715Z,7.20
2018-07-31T09:57:11.717Z,6.60
2018-07-31T09:59:41.398Z,6.30
2018-07-31T10:02:10.984Z,7.70
2018-07-31T10:04:40.411Z,5.37
2018-07-31T10:07:09.396Z,6.17
2018-07-31T10:09:37.372Z,6.50
2018-07-31T10:12:05.644Z,7.60
2018-07-31T10:14:33.566Z,7.13
2018-07-31T10:17:01.548Z,7.13
2018-07-31T10:19:29.486Z,6.37
2018-07-31T10:21:57.467Z,6.83
2018-07-31T10:24:25.444Z,5.63
2018-07-31T10:26:53.395Z,6.67
2018-07-31T10:29:21.343Z,6.10
2018-07-31T10:31:49.297Z,7.10
2018-07-31T10:34:17.232Z,6.40
2018-07-31T10:36:45.156Z,6.30
2018-07-31T10:39:13.262Z,7.40
2018-07-31T10:41:41.943Z,6.62
2018-07-31T10:44:10.989Z,6.57
2018-07-31T10:46:39.674Z,6.17
2018-07-31T10:49:07.854Z,6.67
2018-07-31T10:51:35.942Z,8.20
2018-07-31T10:54:03.928Z,7.20
2018-07-31T10:56:31.871Z,8.50
2018-07-31T10:58:59.960Z,7.77
2018-07-31T11:01:27.897Z,7.70
2018-07-31T11:03:55.932Z,6.83
2018-07-31T11:06:23.891Z,7.50
2018-07-31T11:08:51.913Z,6.83
2018-07-31T11:11:19.933Z,6.90
2018-07-31T11:13:47.903Z,5.90
2018-07-31T11:16:16.362Z,5.72
2018-07-31T11:18:44.331Z,6.60
2018-07-31T11:21:12.818Z,5.50
2018-07-31T11:23:41.909Z,6.47
2018-07-31T11:26:10.773Z,6.40
2018-07-31T11:28:39.257Z,6.30
2018-07-31T11:31:07.507Z,6.63
2018-07-31T11:33:35.514Z,6.47
2018-07-31T11:36:10.539Z,6.37
2018-07-31T11:38:38.722Z,6.10
2018-07-31T11:41:06.822Z,6.20
2018-07-31T11:43:34.849Z,7.43
2018-07-31T11:46:02.839Z,7.17
2018-07-31T11:48:30.826Z,6.60
2018-07-31T11:50:58.787Z,4.37
2018-07-31T11:53:26.783Z,6.90
2018-07-31T11:55:54.780Z,7.27
2018-07-31T11:58:22.798Z,6.70
2018-07-31T12:00:50.756Z,6.90
2018-07-31T12:03:18.800Z,6.50
2018-07-31T12:05:46.780Z,6.40
2018-07-31T12:08:14.769Z,6.53
2018-07-31T12:10:43.355Z,7.00
2018-07-31T12:13:12.469Z,6.37
2018-07-31T12:15:41.185Z,7.10
2018-07-31T12:18:09.199Z,4.90
2018-07-31T12:20:37.385Z,6.50
2018-07-31T12:23:05.370Z,6.90
2018-07-31T12:25:33.357Z,6.43
2018-07-31T12:28:01.322Z,5.97
2018-07-31T12:30:29.297Z,5.97
2018-07-31T12:32:57.333Z,5.43
2018-07-31T12:35:27.186Z,5.30
2018-07-31T12:37:56.254Z,4.93
2018-07-31T12:40:25.231Z,5.67
2018-07-31T12:42:53.989Z,5.90
2018-07-31T12:45:22.224Z,6.30
2018-07-31T12:47:50.357Z,5.53
2018-07-31T12:50:18.823Z,6.10
2018-07-31T12:52:47.209Z,5.40
2018-07-31T12:55:15.601Z,4.60
2018-07-31T12:57:44.083Z,5.10
2018-07-31T13:00:13.139Z,5.87
2018-07-31T13:02:41.862Z,7.00
2018-07-31T13:05:10.045Z,7.50
2018-07-31T13:07:38.168Z,6.03
2018-07-31T13:10:06.171Z,5.17
2018-07-31T13:12:34.135Z,6.20
2018-07-31T13:15:02.499Z,4.63
2018-07-31T13:17:31.746Z,6.00
2018-07-31T13:19:59.986Z,6.20
2018-07-31T13:22:28.939Z,6.10
2018-07-31T13:24:56.987Z,6.03
2018-07-31T13:27:24.958Z,6.00
2018-07-31T13:29:52.939Z,6.83
2018-07-31T13:32:20.923Z,6.20
2018-07-31T13:34:48.919Z,5.73
2018-07-31T13:37:16.948Z,6.73
2018-07-31T13:39:45.183Z,6.27
2018-07-31T13:42:14.019Z,5.20
2018-07-31T13:44:42.981Z,6.80
2018-07-31T13:47:11.462Z,6.45
2018-07-31T13:49:39.809Z,5.20
2018-07-31T13:52:08.936Z,6.73
2018-07-31T13:54:38.566Z,6.30
2018-07-31T13:57:07.970Z,5.30
2018-07-31T13:59:37.228Z,6.33
2018-07-31T14:02:05.383Z,4.50
2018-07-31T14:04:33.358Z,7.30
2018-07-31T14:07:01.394Z,5.73
2018-07-31T14:09:29.298Z,6.20
2018-07-31T14:11:57.270Z,5.67
2018-07-31T14:14:25.326Z,6.33
2018-07-31T14:16:53.320Z,5.60
2018-07-31T14:19:21.373Z,6.43
2018-07-31T14:21:49.357Z,5.00
2018-07-31T14:24:17.352Z,4.87
2018-07-31T14:26:45.757Z,4.47
2018-07-31T14:29:14.657Z,4.30
2018-07-31T14:31:43.309Z,5.60
2018-07-31T14:34:11.319Z,5.30
2018-07-31T14:36:39.437Z,5.37
2018-07-31T14:39:08.194Z,4.77
2018-07-31T14:41:36.169Z,5.37
2018-07-31T14:44:04.167Z,6.13
2018-07-31T14:46:32.160Z,5.97
2018-07-31T14:49:00.118Z,5.20
2018-07-31T14:51:28.127Z,4.97
2018-07-31T14:53:56.084Z,5.90
2018-07-31T14:56:24.175Z,6.50
2018-07-31T14:58:52.118Z,5.20
2018-07-31T15:01:20.095Z,5.27
2018-07-31T15:03:48.126Z,4.73
2018-07-31T15:06:16.399Z,5.20
2018-07-31T15:08:45.346Z,4.60
2018-07-31T15:11:14.327Z,5.50
2018-07-31T15:13:42.893Z,4.23
2018-07-31T15:16:11.058Z,3.23
2018-07-31T15:18:39.038Z,4.53
2018-07-31T15:21:07.028Z,5.37
2018-07-31T15:23:35.024Z,5.22
2018-07-31T15:26:03.023Z,6.30
2018-07-31T15:28:31.023Z,5.03
2018-07-31T15:30:58.993Z,5.27
2018-07-31T15:33:26.991Z,6.37
2018-07-31T15:35:55.252Z,6.67
2018-07-31T15:38:23.202Z,4.90
2018-07-31T15:40:51.251Z,5.70
2018-07-31T15:43:19.215Z,6.97
2018-07-31T15:45:47.756Z,5.70
2018-07-31T15:48:16.883Z,5.27
2018-07-31T15:50:46.362Z,6.40
2018-07-31T15:53:15.662Z,4.97
2018-07-31T15:55:44.537Z,6.47
2018-07-31T15:58:12.677Z,6.07
2018-07-31T16:00:40.711Z,5.73
2018-07-31T16:03:08.702Z,6.50
2018-07-31T16:05:36.656Z,6.20
2018-07-31T16:08:04.641Z,5.77
2018-07-31T16:10:32.606Z,6.63
2018-07-31T16:13:00.610Z,4.40
2018-07-31T16:15:28.599Z,7.00
2018-07-31T16:17:56.581Z,6.13
2018-07-31T16:20:24.569Z,6.90
2018-07-31T16:22:52.601Z,7.03
2018-07-31T16:25:20.557Z,5.53
2018-07-31T16:27:48.839Z,6.13
2018-07-31T16:30:17.562Z,5.80
2018-07-31T16:32:46.426Z,6.20
2018-07-31T16:35:14.802Z,6.20
2018-07-31T16:37:42.997Z,6.23
2018-07-31T16:40:10.950Z,4.10
2018-07-31T16:42:38.965Z,6.20
2018-07-31T16:45:06.964Z,5.80
2018-07-31T16:47:34.989Z,6.60
2018-07-31T16:50:03.001Z,7.40
2018-07-31T16:52:30.990Z,6.90
2018-07-31T16:54:58.985Z,8.13
2018-07-31T16:57:26.975Z,7.50
2018-07-31T16:59:54.946Z,8.27
2018-07-31T17:02:22.946Z,8.67
2018-07-31T17:04:50.904Z,7.17
2018-07-31T17:07:19.363Z,7.00
2018-07-31T17:09:48.511Z,6.67
2018-07-31T17:12:17.117Z,7.77
2018-07-31T17:14:45.185Z,6.80
2018-07-31T17:17:13.341Z,6.70
2018-07-31T17:19:41.354Z,5.90
2018-07-31T17:22:09.327Z,7.00
2018-07-31T17:24:37.298Z,8.23
2018-07-31T17:27:05.289Z,6.47
2018-07-31T17:29:33.281Z,6.47
2018-07-31T17:32:01.256Z,5.87
2018-07-31T17:34:29.250Z,6.93
2018-07-31T17:36:57.212Z,6.30
2018-07-31T17:39:25.197Z,6.40
2018-07-31T17:41:53.141Z,6.37
2018-07-31T17:44:21.300Z,6.17
2018-07-31T17:46:50.235Z,6.13
2018-07-31T17:49:19.544Z,6.10
2018-07-31T17:51:48.485Z,6.90
2018-07-31T17:54:16.494Z,5.77
2018-07-31T17:56:44.650Z,4.90
2018-07-31T17:59:12.634Z,6.23
2018-07-31T18:01:40.595Z,5.83
2018-07-31T18:04:08.616Z,5.40
2018-07-31T18:06:36.600Z,5.07
2018-07-31T18:09:06.372Z,5.33
2018-07-31T18:11:34.351Z,5.47
2018-07-31T18:14:02.452Z,5.53
2018-07-31T18:16:30.390Z,5.20
2018-07-31T18:18:58.394Z,5.17
2018-07-31T18:21:26.342Z,5.00
2018-07-31T18:23:54.592Z,4.97
2018-07-31T18:26:22.744Z,5.30
2018-07-31T18:28:52.111Z,5.23
2018-07-31T18:31:21.080Z,5.53
2018-07-31T18:33:49.941Z,5.50
2018-07-31T18:36:18.322Z,4.30
2018-07-31T18:38:46.495Z,4.83
2018-07-31T18:41:14.633Z,4.77
2018-07-31T18:43:42.512Z,5.10
2018-07-31T18:46:11.100Z,5.13
2018-07-31T18:48:39.119Z,5.33
2018-07-31T18:51:07.094Z,5.20
2018-07-31T18:53:35.106Z,5.40
2018-07-31T18:56:03.087Z,5.00
2018-07-31T18:58:31.179Z,6.33
2018-07-31T19:00:59.236Z,5.93
2018-07-31T19:03:27.261Z,5.50
2018-07-31T19:05:55.214Z,5.30
2018-07-31T19:08:23.400Z,4.70
2018-07-31T19:10:52.534Z,5.93
2018-07-31T19:13:21.448Z,5.20
2018-07-31T19:15:50.036Z,5.10
2018-07-31T19:18:18.053Z,4.73
2018-07-31T19:20:46.142Z,3.97
2018-07-31T19:23:14.086Z,5.10
2018-07-31T19:25:42.087Z,4.60
2018-07-31T19:28:10.202Z,4.30
2018-07-31T19:30:38.125Z,5.10
2018-07-31T19:33:06.145Z,4.17
2018-07-31T19:35:34.162Z,4.37
2018-07-31T19:38:02.114Z,4.13
2018-07-31T19:40:30.156Z,3.77
2018-07-31T19:42:58.142Z,4.23
2018-07-31T19:45:26.129Z,3.80
2018-07-31T19:47:54.378Z,3.50
2018-07-31T19:50:23.618Z,3.97
2018-07-31T19:52:52.539Z,3.80
2018-07-31T19:55:21.236Z,3.50
2018-07-31T19:57:49.362Z,3.93
2018-07-31T20:00:17.483Z,4.27
2018-07-31T20:02:45.445Z,4.43
2018-07-31T20:05:13.444Z,4.30
2018-07-31T20:07:41.415Z,4.47
2018-07-31T20:10:09.398Z,4.10
2018-07-31T20:12:37.359Z,4.40
2018-07-31T20:15:05.382Z,4.57
2018-07-31T20:17:33.371Z,4.47
2018-07-31T20:20:01.394Z,4.70
2018-07-31T20:22:29.375Z,4.17
2018-07-31T20:24:57.368Z,4.40
2018-07-31T20:27:25.570Z,3.40
2018-07-31T20:29:55.234Z,4.80
2018-07-31T20:32:27.604Z,4.10
2018-07-31T20:34:55.901Z,4.20
2018-07-31T20:37:25.363Z,4.20
2018-07-31T20:39:54.382Z,5.37
2018-07-31T20:42:23.243Z,3.50
2018-07-31T20:44:51.828Z,4.00
2018-07-31T20:47:19.943Z,4.07
2018-07-31T20:49:47.967Z,3.77
2018-07-31T20:52:15.930Z,3.90
2018-07-31T20:54:43.882Z,4.30
2018-07-31T20:57:11.879Z,4.13
2018-07-31T20:59:39.872Z,3.33
2018-07-31T21:02:08.093Z,3.30
2018-07-31T21:04:36.060Z,3.47
2018-07-31T21:07:04.072Z,3.80
2018-07-31T21:09:32.081Z,3.80
2018-07-31T21:12:00.167Z,3.43
2018-07-31T21:14:28.138Z,3.10
2018-07-31T21:16:56.341Z,3.40
2018-07-31T21:19:25.375Z,4.30
2018-07-31T21:21:54.087Z,3.97
2018-07-31T21:24:22.108Z,4.20
2018-07-31T21:26:50.242Z,4.03
2018-07-31T21:29:18.199Z,3.20
2018-07-31T21:31:46.169Z,4.03
2018-07-31T21:34:14.137Z,3.57
2018-07-31T21:36:42.118Z,3.40
2018-07-31T21:39:11.508Z,3.87
2018-07-31T21:41:39.834Z,4.03
2018-07-31T21:44:07.825Z,3.37
2018-07-31T21:46:35.951Z,4.57
2018-07-31T21:49:04.013Z,3.80
2018-07-31T21:51:32.054Z,4.77
2018-07-31T21:54:00.030Z,3.67
2018-07-31T21:56:28.507Z,3.90
2018-07-31T21:58:58.120Z,3.80
2018-07-31T22:01:30.288Z,4.33
2018-07-31T22:03:58.401Z,3.97
2018-07-31T22:06:27.369Z,4.07
2018-07-31T22:08:56.419Z,4.60
2018-07-31T22:11:25.001Z,3.70
2018-07-31T22:13:53.253Z,3.90
2018-07-31T22:16:21.325Z,3.67
2018-07-31T22:18:49.278Z,3.53
2018-07-31T22:21:17.293Z,4.00
2018-07-31T22:23:45.246Z,4.20
2018-07-31T22:26:13.226Z,4.00
2018-07-31T22:28:41.224Z,4.23
2018-07-31T22:31:09.222Z,3.73
2018-07-31T22:33:37.199Z,4.00
2018-07-31T22:36:05.171Z,4.03
2018-07-31T22:38:33.174Z,3.80
2018-07-31T22:41:01.162Z,3.53
2018-07-31T22:43:29.438Z,3.80
2018-07-31T22:45:58.401Z,3.80
2018-07-31T22:48:27.499Z,3.63
2018-07-31T22:50:56.102Z,3.77
2018-07-31T22:53:24.152Z,3.13
2018-07-31T22:55:52.238Z,3.30
2018-07-31T22:58:20.205Z,4.57
2018-07-31T23:00:48.168Z,3.07
2018-07-31T23:03:16.162Z,3.60
2018-07-31T23:05:44.113Z,3.13
2018-07-31T23:08:12.100Z,3.10
2018-07-31T23:10:40.052Z,3.33
2018-07-31T23:13:08.063Z,3.20
2018-07-31T23:15:36.022Z,3.90
2018-07-31T23:18:04.009Z,3.57
2018-07-31T23:20:31.974Z,3.40
2018-07-31T23:23:00.121Z,3.67
2018-07-31T23:25:29.323Z,3.73
2018-07-31T23:27:58.355Z,3.80
2018-07-31T23:30:26.788Z,3.73
2018-07-31T23:32:54.919Z,3.90
2018-07-31T23:35:22.958Z,2.87
2018-07-31T23:37:51.077Z,3.77
2018-07-31T23:40:19.029Z,3.80
2018-07-31T23:42:46.997Z,3.63
2018-07-31T23:45:14.971Z,3.93
2018-07-31T23:47:42.981Z,4.00
2018-07-31T23:50:10.967Z,3.90
2018-07-31T23:52:38.958Z,4.50
2018-07-31T23:55:06.943Z,4.97
2018-07-31T23:57:34.921Z,3.63
